Long Hua — VRFR5 — position and weather

sailwx.info

Track history (hours):
 
Tides and Currents Weather Stations Pressure Air Temp Water Temp Dewpoint Dewpoint Depression Visibility Wind Speed Wind Dir Waves Ship Positions

Long Hua

Last reported at 2014-Aug-26 12:31 UTC. Time now 2014-Aug-27 23:16 UTC.
Position N 54°40' E 019°46'.

Length 180 m; draft 9.4 m.

MMSI: 477622800.

Date/timePositionNaut miles runAvg speedWind from/ knotsBaromVisibWave heightAir tempDewpointWater temp
2014-Aug-26 12:31N 54°40' E 019°46'1 0.2
2014-Aug-26 06:12N 54°39' E 019°47'0 0.0
2014-Aug-26 05:12N 54°39' E 019°47'0 0.0
2014-Aug-26 04:18N 54°39' E 019°47'0 0.0
2014-Aug-26 03:33N 54°39' E 019°47'0 0.0
2014-Aug-26 02:30N 54°39' E 019°47'0 0.0
2014-Aug-26 01:33N 54°39' E 019°47'0 0.0
2014-Aug-26 00:33N 54°39' E 019°47'0 0.0
2014-Aug-25 23:21N 54°39' E 019°47'0 0.0
2014-Aug-25 18:27N 54°39' E 019°47'0 0.0
2014-Aug-25 15:30N 54°39' E 019°47'0 0.0
2014-Aug-25 14:30N 54°39' E 019°47'0 0.0
2014-Aug-25 13:33N 54°39' E 019°47'0 0.0
2014-Aug-25 12:24N 54°39' E 019°47'0 0.0
2014-Aug-25 11:24N 54°39' E 019°47'0 0.0
2014-Aug-25 10:30N 54°39' E 019°47'0 0.0
2014-Aug-25 09:27N 54°39' E 019°47'1 0.8
2014-Aug-25 08:30N 54°39' E 019°46'5 5.3
2014-Aug-25 07:31N 54°43' E 019°41'1212.6
2014-Aug-25 06:33N 54°48' E 019°21'1312.7
2014-Aug-25 05:33N 54°52' E 018°60'1312.9
2014-Aug-25 04:33N 54°56' E 018°39'1312.8
2014-Aug-25 03:33N 54°57' E 018°16'1312.8
2014-Aug-25 02:33N 54°57' E 017°54'1312.6
2014-Aug-25 01:31N 54°55' E 017°32'11712.4
2014-Aug-24 16:05N 54°38' E 014°10'1012.3
2014-Aug-24 15:16N 54°41' E 013°54'912.1
2014-Aug-24 14:33N 54°44' E 013°39'1212.2
2014-Aug-24 13:33N 54°46' E 013°19'1312.5
2014-Aug-24 12:32N 54°46' E 012°57'1111.8
2014-Aug-24 11:33N 54°43' E 012°37'1212.0
2014-Aug-24 10:33N 54°36' E 012°20'1212.2
2014-Aug-24 09:33N 54°25' E 012°11'1212.1
2014-Aug-24 08:33N 54°24' E 011°50'244 5.3
2014-Aug-22 10:32N 53°59' E 004°56'1212.1
2014-Aug-22 09:32N 53°47' E 004°53'1211.7
2014-Aug-22 08:32N 53°36' E 004°50'1212.0
2014-Aug-22 07:33N 53°25' E 004°43'5212.3
2014-Aug-22 03:18N 52°40' E 003°59'8013.3
2014-Aug-21 21:16N 51°41' E 002°31'1213.2
2014-Aug-21 20:21N 51°32' E 002°18'1112.5
2014-Aug-21 19:29N 51°22' E 002°10'1111.9
2014-Aug-21 18:33N 51°13' E 002°00'1211.7
2014-Aug-21 17:33N 51°06' E 001°45'5611.1
2014-Aug-21 12:33N 50°27' E 000°42'1212.1
2014-Aug-21 11:33N 50°24' E 000°24'  
2014-Aug-16 13:26N 32°41' W 017°32'  
Track history (hours):
 
Tides and Currents Weather Stations Pressure Air Temp Water Temp Dewpoint Dewpoint Depression Visibility Wind Speed Wind Dir Waves Ship Positions

Long Hua

Last reported at 2014-Aug-26 12:31 UTC. Time now 2014-Aug-27 23:16 UTC.
Position N 54°40' E 019°46'.

Length 180 m; draft 9.4 m.

MMSI: 477622800.

Date/timePositionNaut miles runAvg speedWind from/ knotsBaromVisibWave heightAir tempDewpointWater temp
2014-Aug-26 12:31N 54°40' E 019°46'1 0.2
2014-Aug-26 06:12N 54°39' E 019°47'0 0.0
2014-Aug-26 05:12N 54°39' E 019°47'0 0.0
2014-Aug-26 04:18N 54°39' E 019°47'0 0.0
2014-Aug-26 03:33N 54°39' E 019°47'0 0.0
2014-Aug-26 02:30N 54°39' E 019°47'0 0.0
2014-Aug-26 01:33N 54°39' E 019°47'0 0.0
2014-Aug-26 00:33N 54°39' E 019°47'0 0.0
2014-Aug-25 23:21N 54°39' E 019°47'0 0.0
2014-Aug-25 18:27N 54°39' E 019°47'0 0.0
2014-Aug-25 15:30N 54°39' E 019°47'0 0.0
2014-Aug-25 14:30N 54°39' E 019°47'0 0.0
2014-Aug-25 13:33N 54°39' E 019°47'0 0.0
2014-Aug-25 12:24N 54°39' E 019°47'0 0.0
2014-Aug-25 11:24N 54°39' E 019°47'0 0.0
2014-Aug-25 10:30N 54°39' E 019°47'0 0.0
2014-Aug-25 09:27N 54°39' E 019°47'1 0.8
2014-Aug-25 08:30N 54°39' E 019°46'5 5.3
2014-Aug-25 07:31N 54°43' E 019°41'1212.6
2014-Aug-25 06:33N 54°48' E 019°21'1312.7
2014-Aug-25 05:33N 54°52' E 018°60'1312.9
2014-Aug-25 04:33N 54°56' E 018°39'1312.8
2014-Aug-25 03:33N 54°57' E 018°16'1312.8
2014-Aug-25 02:33N 54°57' E 017°54'1312.6
2014-Aug-25 01:31N 54°55' E 017°32'11712.4
2014-Aug-24 16:05N 54°38' E 014°10'1012.3
2014-Aug-24 15:16N 54°41' E 013°54'912.1
2014-Aug-24 14:33N 54°44' E 013°39'1212.2
2014-Aug-24 13:33N 54°46' E 013°19'1312.5
2014-Aug-24 12:32N 54°46' E 012°57'1111.8
2014-Aug-24 11:33N 54°43' E 012°37'1212.0
2014-Aug-24 10:33N 54°36' E 012°20'1212.2
2014-Aug-24 09:33N 54°25' E 012°11'1212.1
2014-Aug-24 08:33N 54°24' E 011°50'244 5.3
2014-Aug-22 10:32N 53°59' E 004°56'1212.1
2014-Aug-22 09:32N 53°47' E 004°53'1211.7
2014-Aug-22 08:32N 53°36' E 004°50'1212.0
2014-Aug-22 07:33N 53°25' E 004°43'5212.3
2014-Aug-22 03:18N 52°40' E 003°59'8013.3
2014-Aug-21 21:16N 51°41' E 002°31'1213.2
2014-Aug-21 20:21N 51°32' E 002°18'1112.5
2014-Aug-21 19:29N 51°22' E 002°10'1111.9
2014-Aug-21 18:33N 51°13' E 002°00'1211.7
2014-Aug-21 17:33N 51°06' E 001°45'5611.1
2014-Aug-21 12:33N 50°27' E 000°42'1212.1
2014-Aug-21 11:33N 50°24' E 000°24'  
2014-Aug-16 13:26N 32°41' W 017°32'  

Dump ship's entire track history